sensor_id;sensor_type;location;lat;lon;timestamp;pressure;altitude;pressure_sealevel;temperature;humidity
7668;BME280;3876;42.204;24.686;2023-03-26T00:00:04;98699.81;;;12.50;100.00
7668;BME280;3876;42.204;24.686;2023-03-26T00:02:33;98701.94;;;12.42;100.00
7668;BME280;3876;42.204;24.686;2023-03-26T00:05:04;98699.59;;;12.38;100.00
7668;BME280;3876;42.204;24.686;2023-03-26T00:07:33;98698.91;;;12.34;100.00
7668;BME280;3876;42.204;24.686;2023-03-26T00:10:00;98702.69;;;12.27;100.00
7668;BME280;3876;42.204;24.686;2023-03-26T00:12:28;98697.84;;;12.21;100.00
7668;BME280;3876;42.204;24.686;2023-03-26T00:14:54;98695.09;;;12.07;100.00
7668;BME280;3876;42.204;24.686;2023-03-26T00:17:22;98676.09;;;11.92;100.00
7668;BME280;3876;42.204;24.686;2023-03-26T00:19:49;98687.81;;;11.98;100.00
7668;BME280;3876;42.204;24.686;2023-03-26T00:22:18;98702.84;;;11.88;100.00
7668;BME280;3876;42.204;24.686;2023-03-26T00:24:46;98699.41;;;11.69;100.00
7668;BME280;3876;42.204;24.686;2023-03-26T00:27:15;98695.75;;;11.56;100.00
7668;BME280;3876;42.204;24.686;2023-03-26T00:29:42;98687.53;;;11.48;100.00
7668;BME280;3876;42.204;24.686;2023-03-26T00:32:09;98683.59;;;11.41;100.00
7668;BME280;3876;42.204;24.686;2023-03-26T00:34:36;98681.09;;;11.39;100.00
7668;BME280;3876;42.204;24.686;2023-03-26T00:37:05;98684.41;;;11.41;100.00
7668;BME280;3876;42.204;24.686;2023-03-26T00:39:33;98679.16;;;11.44;100.00
7668;BME280;3876;42.204;24.686;2023-03-26T00:42:03;98668.75;;;11.47;100.00
7668;BME280;3876;42.204;24.686;2023-03-26T00:44:33;98670.13;;;11.54;100.00
7668;BME280;3876;42.204;24.686;2023-03-26T00:47:00;98672.56;;;11.57;100.00
7668;BME280;3876;42.204;24.686;2023-03-26T00:49:28;98672.22;;;11.65;100.00
7668;BME280;3876;42.204;24.686;2023-03-26T00:51:55;98672.91;;;11.69;100.00
7668;BME280;3876;42.204;24.686;2023-03-26T00:54:22;98677.09;;;11.71;100.00
7668;BME280;3876;42.204;24.686;2023-03-26T00:56:48;98675.84;;;11.80;100.00
7668;BME280;3876;42.204;24.686;2023-03-26T00:59:16;98684.22;;;11.83;100.00
7668;BME280;3876;42.204;24.686;2023-03-26T01:01:43;98688.66;;;11.80;100.00
7668;BME280;3876;42.204;24.686;2023-03-26T01:04:26;98713.09;;;11.88;100.00
7668;BME280;3876;42.204;24.686;2023-03-26T01:06:55;98725.66;;;11.94;100.00
7668;BME280;3876;42.204;24.686;2023-03-26T01:09:31;98729.97;;;11.94;100.00
7668;BME280;3876;42.204;24.686;2023-03-26T01:11:59;98731.50;;;11.98;100.00
7668;BME280;3876;42.204;24.686;2023-03-26T01:14:28;98724.78;;;11.95;100.00
7668;BME280;3876;42.204;24.686;2023-03-26T01:16:56;98721.50;;;11.92;100.00
7668;BME280;3876;42.204;24.686;2023-03-26T01:19:35;98722.25;;;11.94;100.00
7668;BME280;3876;42.204;24.686;2023-03-26T01:22:03;98716.09;;;11.98;100.00
7668;BME280;3876;42.204;24.686;2023-03-26T01:24:32;98723.94;;;11.95;100.00
7668;BME280;3876;42.204;24.686;2023-03-26T01:27:22;98726.91;;;11.86;100.00
7668;BME280;3876;42.204;24.686;2023-03-26T01:29:54;98731.16;;;11.87;100.00
7668;BME280;3876;42.204;24.686;2023-03-26T01:32:34;98732.88;;;11.86;100.00
7668;BME280;3876;42.204;24.686;2023-03-26T01:35:16;98711.09;;;11.76;100.00
7668;BME280;3876;42.204;24.686;2023-03-26T01:37:55;98719.84;;;11.91;100.00
7668;BME280;3876;42.204;24.686;2023-03-26T01:40:30;98724.41;;;11.84;100.00
7668;BME280;3876;42.204;24.686;2023-03-26T01:43:09;98726.00;;;11.87;100.00
7668;BME280;3876;42.204;24.686;2023-03-26T01:45:40;98719.28;;;11.84;100.00
7668;BME280;3876;42.204;24.686;2023-03-26T01:48:08;98737.47;;;11.80;100.00
7668;BME280;3876;42.204;24.686;2023-03-26T01:50:35;98728.25;;;11.76;100.00
7668;BME280;3876;42.204;24.686;2023-03-26T01:53:02;98716.38;;;11.73;100.00
7668;BME280;3876;42.204;24.686;2023-03-26T01:55:35;98727.88;;;11.83;100.00
7668;BME280;3876;42.204;24.686;2023-03-26T01:58:09;98729.22;;;11.92;100.00
7668;BME280;3876;42.204;24.686;2023-03-26T02:00:41;98734.25;;;11.93;100.00
7668;BME280;3876;42.204;24.686;2023-03-26T02:03:17;98744.94;;;12.03;100.00
7668;BME280;3876;42.204;24.686;2023-03-26T02:05:49;98736.06;;;12.10;100.00
7668;BME280;3876;42.204;24.686;2023-03-26T02:08:22;98723.22;;;12.10;100.00
7668;BME280;3876;42.204;24.686;2023-03-26T02:10:53;98740.84;;;12.35;100.00
7668;BME280;3876;42.204;24.686;2023-03-26T02:13:22;98733.31;;;12.49;100.00
7668;BME280;3876;42.204;24.686;2023-03-26T02:15:57;98737.88;;;12.61;100.00
7668;BME280;3876;42.204;24.686;2023-03-26T02:18:24;98738.03;;;12.75;100.00
7668;BME280;3876;42.204;24.686;2023-03-26T02:21:00;98742.50;;;12.89;100.00
7668;BME280;3876;42.204;24.686;2023-03-26T02:23:27;98751.63;;;12.94;100.00
7668;BME280;3876;42.204;24.686;2023-03-26T02:25:55;98744.44;;;13.01;100.00
7668;BME280;3876;42.204;24.686;2023-03-26T02:28:22;98743.38;;;13.05;100.00
7668;BME280;3876;42.204;24.686;2023-03-26T02:30:49;98747.53;;;13.07;100.00
7668;BME280;3876;42.204;24.686;2023-03-26T02:33:16;98747.41;;;13.10;100.00
7668;BME280;3876;42.204;24.686;2023-03-26T02:35:43;98749.28;;;13.07;100.00
7668;BME280;3876;42.204;24.686;2023-03-26T02:38:10;98755.03;;;13.12;100.00
7668;BME280;3876;42.204;24.686;2023-03-26T02:40:39;98754.88;;;13.15;100.00
7668;BME280;3876;42.204;24.686;2023-03-26T02:43:07;98765.34;;;13.12;100.00
7668;BME280;3876;42.204;24.686;2023-03-26T02:45:34;98769.84;;;13.08;100.00
7668;BME280;3876;42.204;24.686;2023-03-26T02:48:00;98775.06;;;13.05;100.00
7668;BME280;3876;42.204;24.686;2023-03-26T02:50:27;98772.59;;;13.04;100.00
7668;BME280;3876;42.204;24.686;2023-03-26T02:52:57;98775.38;;;12.99;100.00
7668;BME280;3876;42.204;24.686;2023-03-26T02:55:24;98771.22;;;12.97;100.00
7668;BME280;3876;42.204;24.686;2023-03-26T02:57:51;98776.38;;;12.97;100.00
7668;BME280;3876;42.204;24.686;2023-03-26T03:00:20;98774.84;;;12.93;100.00
7668;BME280;3876;42.204;24.686;2023-03-26T03:02:47;98782.66;;;12.91;100.00
7668;BME280;3876;42.204;24.686;2023-03-26T03:05:14;98783.50;;;12.92;100.00
7668;BME280;3876;42.204;24.686;2023-03-26T03:07:43;98786.22;;;12.89;99.88
7668;BME280;3876;42.204;24.686;2023-03-26T03:10:11;98786.97;;;12.91;99.74
7668;BME280;3876;42.204;24.686;2023-03-26T03:12:39;98792.94;;;12.91;98.94
7668;BME280;3876;42.204;24.686;2023-03-26T03:15:08;98786.97;;;12.91;98.55
7668;BME280;3876;42.204;24.686;2023-03-26T03:17:36;98794.69;;;12.91;97.89
7668;BME280;3876;42.204;24.686;2023-03-26T03:20:03;98786.38;;;12.86;97.68
7668;BME280;3876;42.204;24.686;2023-03-26T03:22:33;98791.59;;;12.84;96.93
7668;BME280;3876;42.204;24.686;2023-03-26T03:25:00;98799.66;;;12.77;97.99
7668;BME280;3876;42.204;24.686;2023-03-26T03:27:27;98799.06;;;12.72;97.82
7668;BME280;3876;42.204;24.686;2023-03-26T03:29:54;98800.13;;;12.68;98.04
7668;BME280;3876;42.204;24.686;2023-03-26T03:32:21;98791.25;;;12.56;97.46
7668;BME280;3876;42.204;24.686;2023-03-26T03:34:49;98804.72;;;12.61;97.38
7668;BME280;3876;42.204;24.686;2023-03-26T03:37:16;98811.88;;;12.54;97.81
7668;BME280;3876;42.204;24.686;2023-03-26T03:39:43;98810.44;;;12.49;97.87
7668;BME280;3876;42.204;24.686;2023-03-26T03:42:10;98809.91;;;12.42;97.92
7668;BME280;3876;42.204;24.686;2023-03-26T03:44:37;98816.88;;;12.40;98.03
7668;BME280;3876;42.204;24.686;2023-03-26T03:47:04;98817.91;;;12.36;97.93
7668;BME280;3876;42.204;24.686;2023-03-26T03:49:31;98811.31;;;12.31;98.15
7668;BME280;3876;42.204;24.686;2023-03-26T03:51:59;98816.31;;;12.34;98.06
7668;BME280;3876;42.204;24.686;2023-03-26T03:54:27;98832.50;;;12.36;98.08
7668;BME280;3876;42.204;24.686;2023-03-26T03:56:53;98835.25;;;12.31;97.55
7668;BME280;3876;42.204;24.686;2023-03-26T03:59:20;98837.06;;;12.29;96.99
7668;BME280;3876;42.204;24.686;2023-03-26T04:01:47;98834.25;;;12.17;97.32
7668;BME280;3876;42.204;24.686;2023-03-26T04:04:15;98849.50;;;12.20;96.83
7668;BME280;3876;42.204;24.686;2023-03-26T04:06:42;98834.44;;;12.12;96.18
7668;BME280;3876;42.204;24.686;2023-03-26T04:09:10;98840.34;;;12.14;96.29
7668;BME280;3876;42.204;24.686;2023-03-26T04:11:37;98836.31;;;12.08;96.38
7668;BME280;3876;42.204;24.686;2023-03-26T04:14:04;98821.53;;;11.95;96.82
7668;BME280;3876;42.204;24.686;2023-03-26T04:16:31;98845.41;;;11.97;97.08
7668;BME280;3876;42.204;24.686;2023-03-26T04:18:57;98845.97;;;11.85;97.39
7668;BME280;3876;42.204;24.686;2023-03-26T04:21:27;98847.50;;;11.69;97.90
7668;BME280;3876;42.204;24.686;2023-03-26T04:23:54;98856.97;;;11.67;97.73
7668;BME280;3876;42.204;24.686;2023-03-26T04:26:22;98861.13;;;11.71;97.30
7668;BME280;3876;42.204;24.686;2023-03-26T04:28:51;98868.03;;;11.69;97.50
7668;BME280;3876;42.204;24.686;2023-03-26T04:31:21;98868.03;;;11.69;97.40
7668;BME280;3876;42.204;24.686;2023-03-26T04:33:55;98853.84;;;11.60;97.48
7668;BME280;3876;42.204;24.686;2023-03-26T04:36:27;98874.75;;;11.73;96.83
7668;BME280;3876;42.204;24.686;2023-03-26T04:38:55;98868.50;;;11.78;96.54
7668;BME280;3876;42.204;24.686;2023-03-26T04:41:28;98873.50;;;11.81;96.38
7668;BME280;3876;42.204;24.686;2023-03-26T04:43:57;98886.97;;;11.86;96.50
7668;BME280;3876;42.204;24.686;2023-03-26T04:46:26;98865.03;;;11.79;96.88
7668;BME280;3876;42.204;24.686;2023-03-26T04:48:58;98878.81;;;11.97;96.24
7668;BME280;3876;42.204;24.686;2023-03-26T04:51:29;98872.50;;;12.04;95.82
7668;BME280;3876;42.204;24.686;2023-03-26T04:53:59;98882.22;;;12.16;95.45
7668;BME280;3876;42.204;24.686;2023-03-26T04:56:36;98887.44;;;12.33;94.86
7668;BME280;3876;42.204;24.686;2023-03-26T04:59:05;98881.72;;;12.45;94.26
7668;BME280;3876;42.204;24.686;2023-03-26T05:01:32;98891.31;;;12.60;92.99
7668;BME280;3876;42.204;24.686;2023-03-26T05:04:02;98898.38;;;12.74;92.59
7668;BME280;3876;42.204;24.686;2023-03-26T05:06:28;98902.13;;;12.86;91.53
7668;BME280;3876;42.204;24.686;2023-03-26T05:08:58;98902.38;;;12.98;91.32
7668;BME280;3876;42.204;24.686;2023-03-26T05:11:26;98906.13;;;13.10;91.26
7668;BME280;3876;42.204;24.686;2023-03-26T05:13:54;98912.41;;;13.22;90.75
7668;BME280;3876;42.204;24.686;2023-03-26T05:16:22;98921.66;;;13.26;90.59
7668;BME280;3876;42.204;24.686;2023-03-26T05:18:49;98927.34;;;13.32;90.87
7668;BME280;3876;42.204;24.686;2023-03-26T05:21:17;98910.84;;;13.36;90.13
7668;BME280;3876;42.204;24.686;2023-03-26T05:23:43;98916.69;;;13.57;89.43
7668;BME280;3876;42.204;24.686;2023-03-26T05:26:10;98926.88;;;13.76;88.89
7668;BME280;3876;42.204;24.686;2023-03-26T05:28:37;98934.31;;;13.82;88.02
7668;BME280;3876;42.204;24.686;2023-03-26T05:31:06;98936.25;;;13.94;87.95
7668;BME280;3876;42.204;24.686;2023-03-26T05:33:34;98937.28;;;14.07;86.81
7668;BME280;3876;42.204;24.686;2023-03-26T05:36:03;98940.16;;;14.18;86.74
7668;BME280;3876;42.204;24.686;2023-03-26T05:38:31;98950.53;;;14.34;86.40
7668;BME280;3876;42.204;24.686;2023-03-26T05:40:58;98955.19;;;14.43;85.99
7668;BME280;3876;42.204;24.686;2023-03-26T05:43:25;98966.44;;;14.57;85.59
7668;BME280;3876;42.204;24.686;2023-03-26T05:45:52;98969.13;;;14.71;84.04
7668;BME280;3876;42.204;24.686;2023-03-26T05:48:21;98978.72;;;14.85;84.08
7668;BME280;3876;42.204;24.686;2023-03-26T05:50:49;98981.44;;;14.98;83.32
7668;BME280;3876;42.204;24.686;2023-03-26T05:53:16;98983.03;;;15.00;83.05
7668;BME280;3876;42.204;24.686;2023-03-26T05:55:44;98978.97;;;15.12;82.16
7668;BME280;3876;42.204;24.686;2023-03-26T05:58:12;98989.00;;;15.16;83.12
7668;BME280;3876;42.204;24.686;2023-03-26T06:00:38;98984.34;;;15.23;81.83
7668;BME280;3876;42.204;24.686;2023-03-26T06:03:05;98992.16;;;15.37;82.31
7668;BME280;3876;42.204;24.686;2023-03-26T06:05:38;98988.31;;;15.44;82.55
7668;BME280;3876;42.204;24.686;2023-03-26T06:08:07;98984.31;;;15.54;82.31
7668;BME280;3876;42.204;24.686;2023-03-26T06:10:36;98981.41;;;15.60;81.09
7668;BME280;3876;42.204;24.686;2023-03-26T06:13:03;98993.78;;;15.69;80.32
7668;BME280;3876;42.204;24.686;2023-03-26T06:15:30;98993.78;;;15.69;81.44
7668;BME280;3876;42.204;24.686;2023-03-26T06:17:57;99000.78;;;15.67;80.87
7668;BME280;3876;42.204;24.686;2023-03-26T06:20:23;98999.69;;;15.71;79.60
7668;BME280;3876;42.204;24.686;2023-03-26T06:22:52;98999.34;;;15.77;80.07
7668;BME280;3876;42.204;24.686;2023-03-26T06:25:18;99008.41;;;15.85;79.33
7668;BME280;3876;42.204;24.686;2023-03-26T06:27:45;99002.50;;;15.97;78.93
7668;BME280;3876;42.204;24.686;2023-03-26T06:30:12;99005.41;;;16.06;77.63
7668;BME280;3876;42.204;24.686;2023-03-26T06:32:39;99011.72;;;16.31;77.65
7668;BME280;3876;42.204;24.686;2023-03-26T06:35:07;99020.63;;;16.55;74.22
7668;BME280;3876;42.204;24.686;2023-03-26T06:37:33;99014.44;;;16.57;74.87
7668;BME280;3876;42.204;24.686;2023-03-26T06:40:02;99025.69;;;16.70;70.07
7668;BME280;3876;42.204;24.686;2023-03-26T06:42:29;99026.78;;;16.80;69.97
7668;BME280;3876;42.204;24.686;2023-03-26T06:44:56;99037.69;;;17.00;69.96
7668;BME280;3876;42.204;24.686;2023-03-26T06:47:22;99038.97;;;17.07;68.37
7668;BME280;3876;42.204;24.686;2023-03-26T06:49:49;99033.22;;;17.16;70.87
7668;BME280;3876;42.204;24.686;2023-03-26T06:52:16;99036.59;;;17.30;72.48
7668;BME280;3876;42.204;24.686;2023-03-26T06:54:43;99044.75;;;17.51;69.55
7668;BME280;3876;42.204;24.686;2023-03-26T06:57:11;99046.44;;;17.52;69.62
7668;BME280;3876;42.204;24.686;2023-03-26T06:59:38;99040.16;;;17.42;70.03
7668;BME280;3876;42.204;24.686;2023-03-26T07:02:04;99033.38;;;17.54;70.37
7668;BME280;3876;42.204;24.686;2023-03-26T07:04:31;99036.16;;;17.77;68.92
7668;BME280;3876;42.204;24.686;2023-03-26T07:06:58;99047.81;;;17.84;66.27
7668;BME280;3876;42.204;24.686;2023-03-26T07:09:25;99047.75;;;17.99;64.56
7668;BME280;3876;42.204;24.686;2023-03-26T07:11:54;99052.94;;;17.99;64.57
7668;BME280;3876;42.204;24.686;2023-03-26T07:14:23;99043.91;;;18.17;63.60
7668;BME280;3876;42.204;24.686;2023-03-26T07:16:52;99042.78;;;18.21;61.29
7668;BME280;3876;42.204;24.686;2023-03-26T07:19:19;99047.06;;;18.22;59.61
7668;BME280;3876;42.204;24.686;2023-03-26T07:21:46;99036.69;;;18.34;60.26
7668;BME280;3876;42.204;24.686;2023-03-26T07:24:14;99038.31;;;18.48;59.96
7668;BME280;3876;42.204;24.686;2023-03-26T07:26:48;99032.84;;;18.65;60.42
7668;BME280;3876;42.204;24.686;2023-03-26T07:29:27;99031.06;;;18.78;60.86
7668;BME280;3876;42.204;24.686;2023-03-26T07:32:03;99024.06;;;18.92;58.82
7668;BME280;3876;42.204;24.686;2023-03-26T07:34:44;99020.25;;;18.84;57.59
7668;BME280;3876;42.204;24.686;2023-03-26T07:37:21;98980.19;;;18.63;56.09
7668;BME280;3876;42.204;24.686;2023-03-26T07:39:54;99022.38;;;19.03;54.72
7668;BME280;3876;42.204;24.686;2023-03-26T07:42:32;99016.16;;;19.06;53.53
7668;BME280;3876;42.204;24.686;2023-03-26T07:45:16;99002.94;;;19.09;51.54
7668;BME280;3876;42.204;24.686;2023-03-26T07:47:46;99006.56;;;19.19;52.26
7668;BME280;3876;42.204;24.686;2023-03-26T07:50:14;99015.19;;;19.43;53.37
7668;BME280;3876;42.204;24.686;2023-03-26T07:52:42;99016.13;;;19.42;53.11
7668;BME280;3876;42.204;24.686;2023-03-26T07:55:12;99009.47;;;19.38;52.93
7668;BME280;3876;42.204;24.686;2023-03-26T07:57:45;99007.72;;;19.38;53.36
7668;BME280;3876;42.204;24.686;2023-03-26T08:00:20;99009.38;;;19.16;53.30
7668;BME280;3876;42.204;24.686;2023-03-26T08:05:48;99008.97;;;19.09;54.42
7668;BME280;3876;42.204;24.686;2023-03-26T08:08:18;98998.75;;;19.19;54.31
7668;BME280;3876;42.204;24.686;2023-03-26T08:10:58;99006.59;;;19.30;54.09
7668;BME280;3876;42.204;24.686;2023-03-26T08:13:35;98989.34;;;19.42;54.30
7668;BME280;3876;42.204;24.686;2023-03-26T08:16:07;98998.31;;;19.49;54.13
7668;BME280;3876;42.204;24.686;2023-03-26T08:18:46;99004.91;;;19.29;54.27
7668;BME280;3876;42.204;24.686;2023-03-26T08:21:18;99000.38;;;19.20;55.88
7668;BME280;3876;42.204;24.686;2023-03-26T08:23:57;98988.78;;;19.13;56.25
7668;BME280;3876;42.204;24.686;2023-03-26T08:26:32;98991.50;;;19.35;55.49
7668;BME280;3876;42.204;24.686;2023-03-26T08:29:11;98989.34;;;19.53;54.92
7668;BME280;3876;42.204;24.686;2023-03-26T08:31:43;98980.69;;;19.41;53.17
7668;BME280;3876;42.204;24.686;2023-03-26T08:34:13;98975.19;;;19.33;55.00
7668;BME280;3876;42.204;24.686;2023-03-26T08:36:40;98984.84;;;19.44;55.46
7668;BME280;3876;42.204;24.686;2023-03-26T08:39:07;98975.03;;;19.47;53.84
7668;BME280;3876;42.204;24.686;2023-03-26T08:42:03;98974.66;;;19.64;54.44
7668;BME280;3876;42.204;24.686;2023-03-26T08:48:24;98954.78;;;19.74;51.32
7668;BME280;3876;42.204;24.686;2023-03-26T08:54:53;98944.66;;;19.82;50.90
7668;BME280;3876;42.204;24.686;2023-03-26T09:00:52;98952.69;;;19.79;48.78
7668;BME280;3876;42.204;24.686;2023-03-26T09:03:47;98964.34;;;20.09;48.46
7668;BME280;3876;42.204;24.686;2023-03-26T09:09:43;98959.03;;;20.21;47.76
7668;BME280;3876;42.204;24.686;2023-03-26T09:12:37;98952.06;;;20.22;44.93
7668;BME280;3876;42.204;24.686;2023-03-26T09:15:37;98952.66;;;20.36;46.58
7668;BME280;3876;42.204;24.686;2023-03-26T09:18:27;98950.31;;;20.45;45.72
7668;BME280;3876;42.204;24.686;2023-03-26T09:24:39;98940.47;;;20.70;43.66
7668;BME280;3876;42.204;24.686;2023-03-26T09:27:31;98926.00;;;20.77;42.46
7668;BME280;3876;42.204;24.686;2023-03-26T09:33:39;98936.88;;;20.82;44.31
7668;BME280;3876;42.204;24.686;2023-03-26T09:36:31;98935.47;;;20.78;42.11
7668;BME280;3876;42.204;24.686;2023-03-26T09:39:08;98914.78;;;20.98;42.53
7668;BME280;3876;42.204;24.686;2023-03-26T09:41:40;98919.56;;;20.92;41.22
7668;BME280;3876;42.204;24.686;2023-03-26T09:44:42;98917.91;;;20.91;40.47
7668;BME280;3876;42.204;24.686;2023-03-26T09:47:38;98922.59;;;21.09;41.53
7668;BME280;3876;42.204;24.686;2023-03-26T09:50:23;98914.03;;;21.29;42.20
7668;BME280;3876;42.204;24.686;2023-03-26T09:53:07;98928.94;;;21.27;40.25
7668;BME280;3876;42.204;24.686;2023-03-26T09:55:52;98933.41;;;21.36;40.73
7668;BME280;3876;42.204;24.686;2023-03-26T09:58:40;98925.16;;;21.31;40.41
7668;BME280;3876;42.204;24.686;2023-03-26T10:01:16;98918.34;;;21.39;40.29
7668;BME280;3876;42.204;24.686;2023-03-26T10:03:56;98912.47;;;21.58;39.49
7668;BME280;3876;42.204;24.686;2023-03-26T10:06:35;98911.25;;;21.41;38.63
7668;BME280;3876;42.204;24.686;2023-03-26T10:09:24;98902.44;;;21.42;38.18
7668;BME280;3876;42.204;24.686;2023-03-26T10:12:13;98898.06;;;21.43;39.36
7668;BME280;3876;42.204;24.686;2023-03-26T10:14:44;98900.88;;;21.51;37.97
7668;BME280;3876;42.204;24.686;2023-03-26T10:17:30;98901.00;;;21.70;39.48
7668;BME280;3876;42.204;24.686;2023-03-26T10:20:24;98900.88;;;21.92;37.61
7668;BME280;3876;42.204;24.686;2023-03-26T10:23:01;98903.97;;;21.86;38.26
7668;BME280;3876;42.204;24.686;2023-03-26T10:25:43;98893.47;;;21.77;37.24
7668;BME280;3876;42.204;24.686;2023-03-26T10:28:28;98891.53;;;21.90;38.31
7668;BME280;3876;42.204;24.686;2023-03-26T10:31:14;98879.47;;;21.98;37.73
7668;BME280;3876;42.204;24.686;2023-03-26T10:33:50;98887.81;;;21.92;36.73
7668;BME280;3876;42.204;24.686;2023-03-26T10:36:31;98875.84;;;21.69;35.99
7668;BME280;3876;42.204;24.686;2023-03-26T10:39:17;98869.56;;;21.92;35.73
7668;BME280;3876;42.204;24.686;2023-03-26T10:41:57;98867.50;;;21.96;35.20
7668;BME280;3876;42.204;24.686;2023-03-26T10:44:47;98867.97;;;22.11;36.10
7668;BME280;3876;42.204;24.686;2023-03-26T10:47:40;98866.69;;;22.26;35.98
7668;BME280;3876;42.204;24.686;2023-03-26T10:50:48;98867.44;;;22.17;34.03
7668;BME280;3876;42.204;24.686;2023-03-26T10:53:26;98869.94;;;22.18;36.10
7668;BME280;3876;42.204;24.686;2023-03-26T10:55:59;98868.88;;;22.30;34.96
7668;BME280;3876;42.204;24.686;2023-03-26T10:58:36;98866.72;;;22.35;35.88
7668;BME280;3876;42.204;24.686;2023-03-26T11:01:11;98863.94;;;22.37;36.10
7668;BME280;3876;42.204;24.686;2023-03-26T11:03:49;98856.81;;;22.39;34.56
7668;BME280;3876;42.204;24.686;2023-03-26T11:06:29;98849.63;;;22.31;35.39
7668;BME280;3876;42.204;24.686;2023-03-26T11:09:05;98855.81;;;22.30;34.04
7668;BME280;3876;42.204;24.686;2023-03-26T11:11:40;98845.72;;;22.07;35.71
7668;BME280;3876;42.204;24.686;2023-03-26T11:14:15;98836.56;;;22.22;35.14
7668;BME280;3876;42.204;24.686;2023-03-26T11:16:54;98831.50;;;22.39;34.45
7668;BME280;3876;42.204;24.686;2023-03-26T11:19:29;98837.94;;;22.26;32.54
7668;BME280;3876;42.204;24.686;2023-03-26T11:22:02;98826.13;;;22.31;33.96
7668;BME280;3876;42.204;24.686;2023-03-26T11:24:46;98828.47;;;22.25;33.09
7668;BME280;3876;42.204;24.686;2023-03-26T11:27:24;98815.50;;;22.14;33.83
7668;BME280;3876;42.204;24.686;2023-03-26T11:30:03;98823.22;;;22.25;33.80
7668;BME280;3876;42.204;24.686;2023-03-26T11:32:38;98817.19;;;22.34;33.83
7668;BME280;3876;42.204;24.686;2023-03-26T11:35:13;98812.81;;;22.44;33.52
7668;BME280;3876;42.204;24.686;2023-03-26T11:37:43;98814.22;;;22.48;33.50
7668;BME280;3876;42.204;24.686;2023-03-26T11:40:14;98813.66;;;22.44;31.41
7668;BME280;3876;42.204;24.686;2023-03-26T11:42:45;98806.50;;;22.56;34.22
7668;BME280;3876;42.204;24.686;2023-03-26T11:45:17;98802.41;;;22.63;32.57
7668;BME280;3876;42.204;24.686;2023-03-26T11:47:47;98809.84;;;22.58;31.91
7668;BME280;3876;42.204;24.686;2023-03-26T11:50:19;98791.25;;;22.52;31.52
7668;BME280;3876;42.204;24.686;2023-03-26T11:52:48;98797.19;;;22.63;32.29
7668;BME280;3876;42.204;24.686;2023-03-26T11:55:15;98799.97;;;22.71;33.83
7668;BME280;3876;42.204;24.686;2023-03-26T11:57:46;98793.22;;;22.69;32.59
7668;BME280;3876;42.204;24.686;2023-03-26T12:00:17;98789.81;;;22.78;33.35
7668;BME280;3876;42.204;24.686;2023-03-26T12:02:46;98780.84;;;22.80;32.79
7668;BME280;3876;42.204;24.686;2023-03-26T12:05:16;98791.16;;;22.91;35.15
7668;BME280;3876;42.204;24.686;2023-03-26T12:07:48;98797.09;;;22.93;32.66
7668;BME280;3876;42.204;24.686;2023-03-26T12:10:22;98782.91;;;22.96;33.13
7668;BME280;3876;42.204;24.686;2023-03-26T12:12:51;98776.28;;;23.01;33.96
7668;BME280;3876;42.204;24.686;2023-03-26T12:15:20;98778.50;;;22.96;32.99
7668;BME280;3876;42.204;24.686;2023-03-26T12:17:50;98773.13;;;22.98;31.15
7668;BME280;3876;42.204;24.686;2023-03-26T12:20:30;98769.69;;;22.97;33.12
7668;BME280;3876;42.204;24.686;2023-03-26T12:22:58;98770.50;;;22.88;32.97
7668;BME280;3876;42.204;24.686;2023-03-26T12:25:26;98772.47;;;22.86;32.63
7668;BME280;3876;42.204;24.686;2023-03-26T12:27:57;98770.53;;;22.79;31.33
7668;BME280;3876;42.204;24.686;2023-03-26T12:30:29;98768.63;;;22.71;33.46
7668;BME280;3876;42.204;24.686;2023-03-26T12:32:59;98756.50;;;22.70;32.83
7668;BME280;3876;42.204;24.686;2023-03-26T12:35:29;98753.72;;;22.81;32.07
7668;BME280;3876;42.204;24.686;2023-03-26T12:38:14;98733.09;;;22.78;31.79
7668;BME280;3876;42.204;24.686;2023-03-26T12:40:42;98742.19;;;22.93;32.83
7668;BME280;3876;42.204;24.686;2023-03-26T12:43:20;98737.63;;;22.95;30.49
7668;BME280;3876;42.204;24.686;2023-03-26T12:45:53;98738.84;;;23.01;30.41
7668;BME280;3876;42.204;24.686;2023-03-26T12:48:20;98729.41;;;22.90;29.36
7668;BME280;3876;42.204;24.686;2023-03-26T12:51:01;98712.91;;;22.80;28.35
7668;BME280;3876;42.204;24.686;2023-03-26T12:53:45;98725.69;;;22.83;28.50
7668;BME280;3876;42.204;24.686;2023-03-26T12:56:18;98726.25;;;22.77;29.66
7668;BME280;3876;42.204;24.686;2023-03-26T12:59:05;98727.63;;;22.72;29.26
7668;BME280;3876;42.204;24.686;2023-03-26T13:01:48;98723.78;;;22.66;29.16
7668;BME280;3876;42.204;24.686;2023-03-26T13:04:49;98717.16;;;22.81;29.92
7668;BME280;3876;42.204;24.686;2023-03-26T13:07:26;98706.41;;;22.84;29.84
7668;BME280;3876;42.204;24.686;2023-03-26T13:10:22;98721.31;;;22.74;29.46
7668;BME280;3876;42.204;24.686;2023-03-26T13:12:57;98716.88;;;22.84;29.05
7668;BME280;3876;42.204;24.686;2023-03-26T13:15:31;98704.25;;;22.80;30.62
7668;BME280;3876;42.204;24.686;2023-03-26T13:18:10;98711.09;;;22.90;29.47
7668;BME280;3876;42.204;24.686;2023-03-26T13:20:48;98696.66;;;22.86;29.05
7668;BME280;3876;42.204;24.686;2023-03-26T13:23:28;98702.84;;;22.85;29.83
7668;BME280;3876;42.204;24.686;2023-03-26T13:26:06;98695.44;;;22.81;28.85
7668;BME280;3876;42.204;24.686;2023-03-26T13:28:40;98694.88;;;22.77;28.10
7668;BME280;3876;42.204;24.686;2023-03-26T13:31:18;98659.13;;;22.49;27.80
7668;BME280;3876;42.204;24.686;2023-03-26T13:33:56;98690.22;;;22.71;28.55
7668;BME280;3876;42.204;24.686;2023-03-26T13:36:32;98682.50;;;22.70;28.55
7668;BME280;3876;42.204;24.686;2023-03-26T13:39:08;98686.91;;;22.69;27.90
7668;BME280;3876;42.204;24.686;2023-03-26T13:41:49;98685.78;;;22.62;25.72
7668;BME280;3876;42.204;24.686;2023-03-26T13:44:27;98688.56;;;22.70;28.85
7668;BME280;3876;42.204;24.686;2023-03-26T13:46:59;98684.19;;;22.71;28.98
7668;BME280;3876;42.204;24.686;2023-03-26T13:49:33;98690.72;;;22.65;29.17
7668;BME280;3876;42.204;24.686;2023-03-26T13:52:06;98679.63;;;22.54;29.63
7668;BME280;3876;42.204;24.686;2023-03-26T13:54:38;98683.06;;;22.54;29.28
7668;BME280;3876;42.204;24.686;2023-03-26T13:57:12;98672.31;;;22.57;29.08
7668;BME280;3876;42.204;24.686;2023-03-26T13:59:44;98684.81;;;22.63;29.89